createdAt,value
2019-01-21T00:01:18.253Z,102306.00
2019-01-21T00:03:47.172Z,102300.61
2019-01-21T00:06:16.180Z,102303.83
2019-01-21T00:08:45.222Z,102302.00
2019-01-21T00:11:14.171Z,102305.66
2019-01-21T00:13:43.061Z,102302.97
2019-01-21T00:16:12.045Z,102305.41
2019-01-21T00:18:41.046Z,102298.18
2019-01-21T00:21:10.093Z,102297.89
2019-01-21T00:23:38.979Z,102301.39
2019-01-21T00:26:07.979Z,102299.45
2019-01-21T00:28:36.971Z,102294.09
2019-01-21T00:31:05.913Z,102299.64
2019-01-21T00:33:34.814Z,102287.21
2019-01-21T00:36:03.840Z,102285.21
2019-01-21T00:38:32.834Z,102288.67
2019-01-21T00:41:01.742Z,102287.15
2019-01-21T00:43:30.738Z,102289.27
2019-01-21T00:45:59.661Z,102291.35
2019-01-21T00:48:28.727Z,102287.15
2019-01-21T00:50:57.748Z,102290.16
2019-01-21T00:53:26.643Z,102285.44
2019-01-21T00:55:55.588Z,102282.94
2019-01-21T00:58:24.584Z,102290.33
2019-01-21T01:00:53.610Z,102297.05
2019-01-21T01:03:22.511Z,102299.45
2019-01-21T01:05:51.478Z,102298.50
2019-01-21T01:08:20.487Z,102297.59
2019-01-21T01:10:49.478Z,102299.39
2019-01-21T01:13:18.459Z,102293.83
2019-01-21T01:15:47.446Z,102289.62
2019-01-21T01:18:16.640Z,102289.25
2019-01-21T01:20:45.629Z,102287.05
2019-01-21T01:23:14.721Z,102300.09
2019-01-21T01:25:43.696Z,102304.30
2019-01-21T01:28:12.660Z,102305.45
2019-01-21T01:30:41.680Z,102296.44
2019-01-21T01:33:11.135Z,102302.88
2019-01-21T01:35:40.076Z,102295.61
2019-01-21T01:38:09.318Z,102300.17
2019-01-21T01:40:38.189Z,102301.13
2019-01-21T01:43:07.211Z,102306.98
2019-01-21T01:45:36.532Z,102300.54
2019-01-21T01:48:06.148Z,102298.56
2019-01-21T01:50:35.098Z,102291.41
2019-01-21T01:53:04.280Z,102292.20
2019-01-21T01:55:33.811Z,102291.66
2019-01-21T01:58:43.102Z,102290.44
2019-01-21T02:01:31.232Z,102294.32
2019-01-21T02:04:00.124Z,102285.94
2019-01-21T02:09:24.362Z,102286.84
2019-01-21T02:15:07.277Z,102274.30
2019-01-21T02:17:55.697Z,102269.66
2019-01-21T02:20:24.533Z,102266.53
2019-01-21T02:23:14.864Z,102269.56
2019-01-21T02:26:02.834Z,102270.77
2019-01-21T02:28:53.623Z,102272.22
2019-01-21T02:32:00.838Z,102265.12
2019-01-21T02:34:51.599Z,102259.30
2019-01-21T02:37:58.861Z,102255.31
2019-01-21T02:40:49.208Z,102258.02
2019-01-21T02:43:58.660Z,102251.41
2019-01-21T02:46:43.408Z,102249.22
2019-01-21T02:50:04.508Z,102240.91
2019-01-21T02:53:11.778Z,102236.34
2019-01-21T02:56:23.159Z,102235.92
2019-01-21T02:59:25.870Z,102233.64
2019-01-21T03:02:20.814Z,102236.92
2019-01-21T03:05:26.653Z,102230.52
2019-01-21T03:08:51.702Z,102237.00
2019-01-21T03:11:43.507Z,102236.22
2019-01-21T03:14:40.247Z,102227.08
2019-01-21T03:17:45.581Z,102228.23
2019-01-21T03:20:32.311Z,102227.41
2019-01-21T03:23:41.743Z,102227.78
2019-01-21T03:26:26.302Z,102219.14
2019-01-21T03:29:45.543Z,102219.14
2019-01-21T03:32:54.662Z,102215.52
2019-01-21T03:36:01.624Z,102207.27
2019-01-21T03:39:10.949Z,102201.42
2019-01-21T03:42:22.903Z,102195.77
2019-01-21T03:45:27.486Z,102196.59
2019-01-21T03:48:17.305Z,102196.09
2019-01-21T03:51:31.054Z,102206.38
2019-01-21T03:54:10.519Z,102212.95
2019-01-21T03:57:09.846Z,102208.26
2019-01-21T04:00:15.810Z,102215.06
2019-01-21T04:03:20.931Z,102209.59
2019-01-21T04:06:33.387Z,102208.31
2019-01-21T04:09:32.825Z,102218.10
2019-01-21T04:12:28.800Z,102208.39
2019-01-21T04:15:23.741Z,102213.41
2019-01-21T04:18:32.985Z,102200.59
2019-01-21T04:21:33.557Z,102198.02
2019-01-21T04:24:52.049Z,102183.27
2019-01-21T04:27:44.238Z,102179.36
2019-01-21T04:30:42.597Z,102175.84
2019-01-21T04:33:57.851Z,102166.25
2019-01-21T04:37:09.374Z,102156.78
2019-01-21T04:40:25.409Z,102153.13
2019-01-21T04:43:44.696Z,102149.73
2019-01-21T04:46:54.883Z,102152.66
2019-01-21T04:49:54.664Z,102143.83
2019-01-21T04:52:39.001Z,102143.08
2019-01-21T04:55:44.151Z,102139.93
2019-01-21T04:59:09.754Z,102138.72
2019-01-21T05:02:01.286Z,102144.33
2019-01-21T05:05:09.831Z,102143.13
2019-01-21T05:08:19.519Z,102136.45
2019-01-21T05:11:21.015Z,102132.17
2019-01-21T05:14:03.259Z,102131.80
2019-01-21T05:16:55.167Z,102136.73
2019-01-21T05:19:53.981Z,102129.25
2019-01-21T05:22:39.741Z,102125.28
2019-01-21T05:25:26.181Z,102132.20
2019-01-21T05:28:27.671Z,102121.53
2019-01-21T05:31:25.628Z,102119.17
2019-01-21T05:34:24.797Z,102115.98
2019-01-21T05:37:14.577Z,102114.78
2019-01-21T05:40:15.914Z,102110.76
2019-01-21T05:43:29.117Z,102114.62
2019-01-21T05:46:35.587Z,102120.05
2019-01-21T05:49:41.128Z,102123.54
2019-01-21T05:52:41.004Z,102133.24
2019-01-21T05:55:38.908Z,102131.05
2019-01-21T05:58:43.976Z,102123.86
2019-01-21T06:01:48.955Z,102115.19
2019-01-21T06:04:40.674Z,102128.28
2019-01-21T06:07:43.944Z,102132.81
2019-01-21T06:10:44.271Z,102142.03
2019-01-21T06:14:00.028Z,102139.00
2019-01-21T06:16:53.752Z,102143.73
2019-01-21T06:20:02.643Z,102139.33
2019-01-21T06:22:45.290Z,102142.34
2019-01-21T06:25:39.043Z,102151.88
2019-01-21T06:28:55.157Z,102148.87
2019-01-21T06:32:00.955Z,102147.71
2019-01-21T06:35:13.672Z,102143.20
2019-01-21T06:38:14.164Z,102140.33
2019-01-21T06:41:36.188Z,102145.59
2019-01-21T06:44:55.236Z,102143.10
2019-01-21T06:48:05.576Z,102130.05
2019-01-21T06:51:04.305Z,102141.28
2019-01-21T06:54:14.195Z,102137.68
2019-01-21T06:57:39.225Z,102138.27
2019-01-21T07:00:47.578Z,102150.52
2019-01-21T07:04:12.561Z,102152.02
2019-01-21T07:07:07.751Z,102144.90
2019-01-21T07:09:52.642Z,102138.41
2019-01-21T07:12:35.780Z,102144.76
2019-01-21T07:15:44.463Z,102139.24
2019-01-21T07:18:49.410Z,102147.39
2019-01-21T07:21:59.973Z,102145.65
2019-01-21T07:25:11.215Z,102149.02
2019-01-21T07:28:27.164Z,102151.76
2019-01-21T07:31:13.593Z,102151.52
2019-01-21T07:34:04.124Z,102149.31
2019-01-21T07:36:47.758Z,102136.52
2019-01-21T07:39:49.045Z,102124.86
2019-01-21T07:42:38.713Z,102132.98
2019-01-21T07:45:16.088Z,102132.81
2019-01-21T07:48:19.357Z,102130.52
2019-01-21T07:51:31.525Z,102131.00
2019-01-21T07:54:31.352Z,102130.00
2019-01-21T07:57:27.203Z,102125.05
2019-01-21T08:00:21.924Z,102109.93
2019-01-21T08:03:40.426Z,102123.03
2019-01-21T08:06:25.065Z,102106.70
2019-01-21T08:09:43.392Z,102102.65
2019-01-21T08:12:54.673Z,102093.81
2019-01-21T08:15:56.148Z,102104.50
2019-01-21T08:22:48.260Z,102102.57
2019-01-21T08:26:16.323Z,102108.92
2019-01-21T08:29:10.864Z,102096.55
2019-01-21T08:32:21.433Z,102102.53
2019-01-21T08:35:25.327Z,102103.30
2019-01-21T08:38:24.982Z,102108.09
2019-01-21T08:41:39.013Z,102096.67
2019-01-21T08:44:46.260Z,102092.98
2019-01-21T08:47:58.520Z,102098.70
2019-01-21T08:51:19.795Z,102097.36
2019-01-21T08:54:26.998Z,102098.65
2019-01-21T08:57:34.263Z,102101.61
2019-01-21T09:00:41.579Z,102087.95
2019-01-21T09:06:47.920Z,102087.97
2019-01-21T09:10:09.555Z,102089.34
2019-01-21T09:13:16.818Z,102089.52
2019-01-21T09:16:09.608Z,102095.88
2019-01-21T09:19:00.631Z,102085.75
2019-01-21T09:22:10.886Z,102097.44
2019-01-21T09:25:18.403Z,102090.06
2019-01-21T09:31:21.706Z,102094.47
2019-01-21T09:34:28.938Z,102092.09
2019-01-21T09:37:45.880Z,102097.36
2019-01-21T09:40:53.116Z,102091.80
2019-01-21T09:44:00.326Z,102094.72
2019-01-21T09:46:48.463Z,102091.22
2019-01-21T09:49:35.810Z,102074.33
2019-01-21T09:52:23.843Z,102084.66
2019-01-21T10:01:58.167Z,102068.88
2019-01-21T10:04:50.466Z,102065.11
2019-01-21T10:07:57.720Z,102057.40
2019-01-21T10:14:06.079Z,102061.84
2019-01-21T10:17:13.312Z,102049.80
2019-01-21T10:19:52.667Z,102057.25
2019-01-21T10:22:59.897Z,102048.94
2019-01-21T10:26:07.163Z,102054.30
2019-01-21T10:29:18.289Z,102051.31
2019-01-21T10:35:20.172Z,102042.26
2019-01-21T10:38:39.258Z,102043.34
2019-01-21T10:41:50.579Z,102060.10
2019-01-21T10:44:57.767Z,102045.57
2019-01-21T10:47:32.567Z,102033.05
2019-01-21T10:50:39.770Z,102036.66
2019-01-21T10:53:47.025Z,102035.16
2019-01-21T10:57:01.503Z,102031.80
2019-01-21T10:59:53.385Z,102022.02
2019-01-21T11:03:00.613Z,102025.49
2019-01-21T11:05:54.647Z,102012.48
2019-01-21T11:09:02.048Z,102004.36
2019-01-21T11:12:09.347Z,101994.02
2019-01-21T11:15:00.792Z,101991.12
2019-01-21T11:24:45.315Z,101979.78
2019-01-21T11:27:52.513Z,101977.64
2019-01-21T11:30:59.782Z,101971.86
2019-01-21T11:34:07.103Z,101962.46
2019-01-21T11:37:14.379Z,101961.46
2019-01-21T11:43:31.525Z,101958.84
2019-01-21T11:46:38.815Z,101961.61
2019-01-21T11:49:46.104Z,101955.71
2019-01-21T11:52:46.325Z,101951.14
2019-01-21T11:55:53.576Z,101946.69
2019-01-21T11:59:00.777Z,101941.11
2019-01-21T12:02:07.998Z,101941.87
2019-01-21T12:08:29.805Z,101931.83
2019-01-21T12:11:21.183Z,101927.41
2019-01-21T12:17:29.928Z,101921.37
2019-01-21T12:20:21.975Z,101924.87
2019-01-21T12:23:29.181Z,101927.52
2019-01-21T12:26:39.917Z,101920.88
2019-01-21T12:29:47.118Z,101918.88
2019-01-21T12:32:54.410Z,101913.34
2019-01-21T12:36:01.647Z,101905.13
2019-01-21T12:39:08.886Z,101902.05
2019-01-21T12:42:16.101Z,101909.23
2019-01-21T12:45:16.989Z,101907.47
2019-01-21T12:48:08.285Z,101903.14
2019-01-21T12:51:15.545Z,101896.25
2019-01-21T12:54:22.810Z,101900.27
2019-01-21T12:57:30.071Z,101895.31
2019-01-21T13:00:22.847Z,101896.67
2019-01-21T13:03:30.103Z,101895.95
2019-01-21T13:06:32.435Z,101892.09
2019-01-21T13:09:47.747Z,101881.37
2019-01-21T13:12:54.963Z,101884.31
2019-01-21T13:16:02.208Z,101881.13
2019-01-21T13:19:09.432Z,101881.59
2019-01-21T13:22:24.885Z,101872.77
2019-01-21T13:25:19.273Z,101873.36
2019-01-21T13:28:12.289Z,101876.77
2019-01-21T13:31:24.950Z,101868.42
2019-01-21T13:34:32.202Z,101871.00
2019-01-21T13:37:39.432Z,101868.66
2019-01-21T13:40:41.222Z,101859.03
2019-01-21T13:43:36.763Z,101863.83
2019-01-21T13:46:44.010Z,101860.80
2019-01-21T13:50:04.832Z,101856.80
2019-01-21T13:53:12.226Z,101847.84
2019-01-21T13:56:07.603Z,101846.91
2019-01-21T13:59:14.890Z,101841.25
2019-01-21T14:02:05.445Z,101837.59
2019-01-21T14:05:12.792Z,101830.88
2019-01-21T14:08:19.990Z,101834.41
2019-01-21T14:11:27.252Z,101834.80
2019-01-21T14:14:22.371Z,101829.84
2019-01-21T14:17:34.496Z,101827.48
2019-01-21T14:20:48.417Z,101822.77
2019-01-21T14:23:55.675Z,101825.83
2019-01-21T14:27:09.874Z,101811.48
2019-01-21T14:30:20.563Z,101812.54
2019-01-21T14:33:27.788Z,101812.42
2019-01-21T14:36:35.012Z,101814.54
2019-01-21T14:39:42.298Z,101807.09
2019-01-21T14:42:49.529Z,101808.16
2019-01-21T14:45:56.778Z,101794.38
2019-01-21T14:49:04.863Z,101805.81
2019-01-21T14:52:12.987Z,101799.19
2019-01-21T14:55:20.259Z,101797.07
2019-01-21T14:58:27.467Z,101798.50
2019-01-21T15:01:34.710Z,101800.84
2019-01-21T15:04:41.980Z,101800.97
2019-01-21T15:07:49.261Z,101799.77
2019-01-21T15:10:56.497Z,101799.19
2019-01-21T15:14:03.735Z,101791.18
2019-01-21T15:17:11.035Z,101794.72
2019-01-21T15:20:10.911Z,101796.37
2019-01-21T15:23:02.237Z,101791.91
2019-01-21T15:26:09.467Z,101789.07
2019-01-21T15:29:16.685Z,101789.66
2019-01-21T15:32:23.937Z,101783.42
2019-01-21T15:35:31.156Z,101771.52
2019-01-21T15:38:38.384Z,101769.63
2019-01-21T15:41:45.691Z,101770.46
2019-01-21T15:44:36.119Z,101765.37
2019-01-21T15:47:43.351Z,101765.14
2019-01-21T15:50:50.583Z,101770.58
2019-01-21T15:53:57.815Z,101762.09
2019-01-21T16:00:39.316Z,101769.50
2019-01-21T16:03:46.598Z,101772.79
2019-01-21T16:06:53.838Z,101779.66
2019-01-21T16:10:01.043Z,101776.68
2019-01-21T16:13:13.540Z,101771.88
2019-01-21T16:16:20.765Z,101771.97
2019-01-21T16:19:28.095Z,101769.73
2019-01-21T16:22:35.301Z,101760.90
2019-01-21T16:25:42.593Z,101764.57
2019-01-21T16:28:52.612Z,101764.31
2019-01-21T16:31:51.987Z,101760.88
2019-01-21T16:34:44.548Z,101759.13
2019-01-21T16:37:45.080Z,101759.13
2019-01-21T16:40:36.774Z,101755.94
2019-01-21T16:43:05.807Z,101756.55
2019-01-21T16:45:34.777Z,101754.64
2019-01-21T16:48:03.816Z,101753.58
2019-01-21T16:50:32.820Z,101749.70
2019-01-21T16:53:01.809Z,101759.48
2019-01-21T16:55:30.785Z,101757.59
2019-01-21T16:57:59.904Z,101758.98
2019-01-21T17:00:28.849Z,101756.86
2019-01-21T17:02:57.863Z,101752.27
2019-01-21T17:05:26.976Z,101756.52
2019-01-21T17:07:57.177Z,101761.83
2019-01-21T17:10:26.219Z,101758.64
2019-01-21T17:12:55.315Z,101757.34
2019-01-21T17:15:24.404Z,101752.75
2019-01-21T17:17:53.539Z,101752.52
2019-01-21T17:20:22.790Z,101756.64
2019-01-21T17:22:51.728Z,101753.70
2019-01-21T17:25:20.802Z,101747.41
2019-01-21T17:27:50.004Z,101743.88
2019-01-21T17:30:19.278Z,101743.77
2019-01-21T17:32:48.269Z,101743.52
2019-01-21T17:35:17.348Z,101736.80
2019-01-21T17:37:46.276Z,101735.97
2019-01-21T17:40:16.908Z,101737.73
2019-01-21T17:42:45.910Z,101738.09
2019-01-21T17:45:17.236Z,101741.30
2019-01-21T17:47:46.199Z,101734.08
2019-01-21T17:51:00.405Z,101732.33
2019-01-21T17:53:29.296Z,101735.64
2019-01-21T17:55:58.206Z,101737.14
2019-01-21T17:59:03.744Z,101745.89
2019-01-21T18:01:35.749Z,101749.08
2019-01-21T18:04:03.663Z,101743.41
2019-01-21T18:06:32.971Z,101741.24
2019-01-21T18:09:02.233Z,101737.70
2019-01-21T18:11:31.179Z,101734.08
2019-01-21T18:14:00.263Z,101731.81
2019-01-21T18:16:29.243Z,101724.00
2019-01-21T18:18:58.258Z,101717.76
2019-01-21T18:21:27.441Z,101715.99
2019-01-21T18:23:56.516Z,101713.49
2019-01-21T18:26:25.658Z,101714.44
2019-01-21T18:28:54.769Z,101716.34
2019-01-21T18:31:24.105Z,101719.73
2019-01-21T18:33:53.137Z,101716.94
2019-01-21T18:36:22.182Z,101718.30
2019-01-21T18:38:51.325Z,101721.31
2019-01-21T18:41:20.365Z,101720.58
2019-01-21T18:43:49.497Z,101715.02
2019-01-21T18:46:18.785Z,101718.53
2019-01-21T18:48:47.765Z,101716.75
2019-01-21T18:51:16.783Z,101721.37
2019-01-21T18:53:45.782Z,101715.48
2019-01-21T18:56:14.764Z,101712.16
2019-01-21T18:58:43.750Z,101711.69
2019-01-21T19:01:12.798Z,101716.97
2019-01-21T19:03:41.841Z,101713.94
2019-01-21T19:06:10.847Z,101704.95
2019-01-21T19:08:39.808Z,101708.75
2019-01-21T19:11:08.862Z,101708.62
2019-01-21T19:13:37.796Z,101710.42
2019-01-21T19:16:06.817Z,101702.38
2019-01-21T19:18:35.712Z,101708.55
2019-01-21T19:21:04.731Z,101717.36
2019-01-21T19:23:33.720Z,101702.98
2019-01-21T19:26:03.010Z,101701.72
2019-01-21T19:28:33.257Z,101699.47
2019-01-21T19:31:02.187Z,101702.91
2019-01-21T19:33:32.229Z,101700.30
2019-01-21T19:36:01.239Z,101697.95
2019-01-21T19:38:30.207Z,101687.09
2019-01-21T19:40:59.267Z,101691.49
2019-01-21T19:43:28.205Z,101686.17
2019-01-21T19:45:57.257Z,101680.52
2019-01-21T19:48:26.275Z,101681.30
2019-01-21T19:50:56.157Z,101678.14
2019-01-21T19:53:25.299Z,101673.77
2019-01-21T19:55:54.609Z,101685.00
2019-01-21T19:58:23.832Z,101680.61
2019-01-21T20:00:53.064Z,101677.06
2019-01-21T20:03:22.429Z,101672.22
2019-01-21T20:05:51.654Z,101673.80
2019-01-21T20:08:20.869Z,101672.41
2019-01-21T20:10:49.948Z,101670.42
2019-01-21T20:13:18.948Z,101668.11
2019-01-21T20:15:47.975Z,101667.31
2019-01-21T20:18:17.268Z,101656.72
2019-01-21T20:20:46.433Z,101660.98
2019-01-21T20:23:15.487Z,101653.39
2019-01-21T20:25:44.616Z,101662.73
2019-01-21T20:28:13.849Z,101654.28
2019-01-21T20:30:42.883Z,101649.69
2019-01-21T20:33:11.991Z,101647.47
2019-01-21T20:35:41.351Z,101655.00
2019-01-21T20:38:10.377Z,101653.11
2019-01-21T20:40:39.523Z,101653.48
2019-01-21T20:43:08.564Z,101654.08
2019-01-21T20:45:37.732Z,101649.02
2019-01-21T20:48:06.889Z,101648.20
2019-01-21T20:50:36.654Z,101649.23
2019-01-21T20:53:05.973Z,101649.81
2019-01-21T20:55:35.115Z,101647.95
2019-01-21T20:58:04.448Z,101638.46
2019-01-21T21:00:33.605Z,101643.68
2019-01-21T21:03:02.803Z,101644.50
2019-01-21T21:05:32.182Z,101640.29
2019-01-21T21:08:01.803Z,101647.45
2019-01-21T21:10:31.373Z,101650.19
2019-01-21T21:13:01.109Z,101653.60
2019-01-21T21:15:32.520Z,101647.25
2019-01-21T21:18:02.090Z,101647.47
2019-01-21T21:20:31.460Z,101649.84
2019-01-21T21:23:00.899Z,101665.88
2019-01-21T21:25:30.210Z,101657.27
2019-01-21T21:27:59.683Z,101667.75
2019-01-21T21:30:31.591Z,101658.33
2019-01-21T21:33:00.864Z,101663.63
2019-01-21T21:35:32.793Z,101652.19
2019-01-21T21:38:02.119Z,101657.72
2019-01-21T21:40:31.648Z,101654.18
2019-01-21T21:43:01.235Z,101653.95
2019-01-21T21:45:30.582Z,101654.78
2019-01-21T21:48:01.251Z,101651.84
2019-01-21T21:50:32.677Z,101653.48
2019-01-21T21:53:01.895Z,101654.67
2019-01-21T21:55:31.263Z,101661.88
2019-01-21T21:58:00.538Z,101655.38
2019-01-21T22:00:30.253Z,101659.48
2019-01-21T22:02:59.645Z,101654.10
2019-01-21T22:05:28.825Z,101647.63
2019-01-21T22:07:58.056Z,101653.50
2019-01-21T22:10:28.985Z,101650.46
2019-01-21T22:12:58.406Z,101642.45
2019-01-21T22:15:28.061Z,101631.96
2019-01-21T22:17:57.291Z,101630.66
2019-01-21T22:20:26.859Z,101625.83
2019-01-21T22:22:56.096Z,101623.95
2019-01-21T22:25:25.184Z,101624.43
2019-01-21T22:27:54.094Z,101622.66
2019-01-21T22:30:27.662Z,101617.13
2019-01-21T22:32:56.883Z,101615.23
2019-01-21T22:38:34.447Z,101615.10
2019-01-21T22:41:22.381Z,101614.88
2019-01-21T22:44:10.528Z,101605.45
2019-01-21T22:46:58.645Z,101614.98
2019-01-21T22:49:46.814Z,101607.67
2019-01-21T22:55:22.826Z,101604.58
2019-01-21T22:58:10.941Z,101604.83
2019-01-21T23:01:23.621Z,101598.95
2019-01-21T23:04:13.493Z,101602.23
2019-01-21T23:06:42.480Z,101601.64
2019-01-21T23:09:11.476Z,101592.24
2019-01-21T23:11:40.378Z,101588.33
2019-01-21T23:14:09.422Z,101589.78
2019-01-21T23:16:38.402Z,101587.03
2019-01-21T23:19:07.335Z,101583.83
2019-01-21T23:21:36.376Z,101582.44
2019-01-21T23:24:05.721Z,101577.25
2019-01-21T23:26:34.946Z,101578.77
2019-01-21T23:29:04.130Z,101570.52
2019-01-21T23:31:33.069Z,101569.22
2019-01-21T23:34:01.958Z,101568.27
2019-01-21T23:36:30.816Z,101559.45
2019-01-21T23:39:00.634Z,101558.53
2019-01-21T23:41:29.572Z,101556.29
2019-01-21T23:43:58.573Z,101559.70
2019-01-21T23:46:27.515Z,101557.59
2019-01-21T23:48:56.426Z,101553.00
2019-01-21T23:51:25.447Z,101556.29
2019-01-21T23:53:54.283Z,101559.11
2019-01-21T23:56:23.289Z,101550.88
2019-01-21T23:58:52.237Z,101554.45
